Perito Moreno, Argentina

11:20 AM ART en Marzo 28, 2015 (GMT -0300)
Balmaceda | | Change Station
CLOSE
Current Station
Aeropuerto
Location: Balmaceda,
Altura: 1719 ft
Estaciones meteorológicas cercanas

Alt 1719 ft 45.91 °S, 71.69 °W | Updated 20 minutes ago

Mostly Cloudy
Muy nublado
54 ° F
Sensación térmica 54 ° F
N
12
Viento Variable Viento desde NO

Hoy
Alta -- | Baja -- ° F
--% Posibilidad de precipitaciones
Ayer
Alta -- | Baja -- ° F
Precip. -- pul
7:56 AM 7:40 PM
Gibosa creciente, 62% visible
Presión 29.89 pul
Visibilidad 6.2 Millas
Nubes Muy nublado 3000 ft
Muy nublado 7000 ft
Punto de rocío 46 ° F
Humedad 77%
Precipitaciones 0.00 pul
Espesor de la nieve No disponible.
UV 2 de una escala de 12
Polen No disponible.
Calidad del aire No disponible.
Flu Activity No disponible.
METAR SCBA 281400Z 31010KT 9999 BKN030 BKN070 12/08 Q1012

More Conditions Fewer Conditions

Presión 29.89 pul
Visibilidad 6.2 Millas
Nubes Muy nublado 3000 ft
Muy nublado 7000 ft
Punto de rocío 46 ° F
Humedad 77%
Precipitaciones 0.00 pul
Espesor de la nieve No disponible.
UV 2 de una escala de 12
Polen No disponible.
Calidad del aire No disponible.
Flu Activity No disponible.
METAR SCBA 281400Z 31010KT 9999 BKN030 BKN070 12/08 Q1012

More Conditions Fewer Conditions

10-Day Weather Forecast

Almanac

Astronomía

Mar. 28, 2015 Salida Puesta
Hora real
Crepúsculo civil
Crepúsculo náutico
Crepúsculo astronómico
Luna
Horas de luz
Horas de luz
Tomorrow will be .
, % of the Moon is Illuminated

Extremos de hoy

Máximos del país Bajas del país

Community

WunderPhotos

Upload Photos

1,808,984 ¡fotos cargadas!

WunderBlogs® & News

Nearby

Calidad del aire

  Calidad del aire Índice AQ Contaminante
Not available.

Grosos de nieve

Estación Profundido Altura

Actividad de terremotos

Ciudad Distance Mag. Tiempo y dato
Magnitud mínima muestra es 2,5.

Temperaturas de aguas costeras

Lugar Temperatura

Stations

Estaciones meteorológicas cercanas

Ubicación de la estación Temp. Vientos helados Punto de rocío Humedad Viento Precip. Alt Actualizado Tipo